createdAt,value
2022-10-25T00:02:35.000Z,12.31
2022-10-25T00:07:35.000Z,12.31
2022-10-25T00:17:35.000Z,10.13
2022-10-25T00:22:35.000Z,10.95
2022-10-25T00:27:35.000Z,11.23
2022-10-25T00:32:35.000Z,12.8
2022-10-25T00:37:35.000Z,13.16
2022-10-25T00:47:34.000Z,11.65
2022-10-25T00:52:34.000Z,11.29
2022-10-25T00:57:35.000Z,11.29
2022-10-25T01:02:35.000Z,11.9
2022-10-25T01:07:35.000Z,14.06
2022-10-25T01:12:35.000Z,12.92
2022-10-25T01:17:35.000Z,13.02
2022-10-25T01:22:35.000Z,12.95
2022-10-25T01:27:34.000Z,15.01
2022-10-25T01:32:35.000Z,14.25
2022-10-25T01:57:34.000Z,11.52
2022-10-25T02:02:34.000Z,11.6
2022-10-25T02:07:35.000Z,9.32
2022-10-25T02:12:34.000Z,10.21
2022-10-25T02:17:35.000Z,10.65
2022-10-25T02:22:35.000Z,11.9
2022-10-25T02:27:35.000Z,12.23
2022-10-25T02:32:34.000Z,9.47
2022-10-25T02:37:35.000Z,9.34
2022-10-25T02:42:35.000Z,43.98
2022-10-25T02:47:34.000Z,42.08
2022-10-25T02:52:34.000Z,14.09
2022-10-25T02:57:35.000Z,14.61
2022-10-25T03:02:35.000Z,14.02
2022-10-25T03:07:35.000Z,14.02
2022-10-25T03:12:35.000Z,18.05
2022-10-25T03:17:35.000Z,18.9
2022-10-25T03:22:34.000Z,18.05
2022-10-25T03:27:34.000Z,15.93
2022-10-25T03:32:35.000Z,13.44
2022-10-25T03:37:35.000Z,13.77
2022-10-25T03:42:35.000Z,13.27
2022-10-25T03:47:35.000Z,12.54
2022-10-25T03:52:34.000Z,11.12
2022-10-25T03:57:35.000Z,9.59
2022-10-25T04:02:34.000Z,9.83
2022-10-25T04:07:35.000Z,9.63
2022-10-25T04:12:34.000Z,11.71
2022-10-25T04:17:35.000Z,15.34
2022-10-25T04:27:35.000Z,18.36
2022-10-25T04:32:35.000Z,16.55
2022-10-25T04:37:34.000Z,13.66
2022-10-25T04:42:34.000Z,12.77
2022-10-25T04:47:35.000Z,12.3
2022-10-25T04:52:34.000Z,14.6
2022-10-25T04:57:35.000Z,12.84
2022-10-25T05:02:35.000Z,12.9
2022-10-25T05:07:34.000Z,21.02
2022-10-25T05:12:35.000Z,26.75
2022-10-25T05:17:35.000Z,26.24
2022-10-25T05:22:35.000Z,24.61
2022-10-25T05:27:35.000Z,25.38
2022-10-25T05:32:35.000Z,40.12
2022-10-25T05:37:35.000Z,40.12
2022-10-25T05:42:35.000Z,45.28
2022-10-25T05:47:35.000Z,41.6
2022-10-25T05:52:35.000Z,36.57
2022-10-25T05:57:34.000Z,35.7
2022-10-25T06:02:35.000Z,33.1
2022-10-25T06:07:35.000Z,28.34
2022-10-25T06:12:35.000Z,29.28
2022-10-25T06:17:35.000Z,27.77
2022-10-25T06:22:34.000Z,27.33
2022-10-25T06:27:35.000Z,17.68
2022-10-25T06:32:35.000Z,14.35
2022-10-25T06:37:35.000Z,12.3
2022-10-25T06:42:34.000Z,15.7
2022-10-25T06:47:35.000Z,15.7
2022-10-25T06:52:35.000Z,14.88
2022-10-25T06:57:35.000Z,18.14
2022-10-25T07:02:35.000Z,19.26
2022-10-25T07:07:35.000Z,17.9
2022-10-25T07:12:35.000Z,13.84
2022-10-25T07:17:34.000Z,14.03
2022-10-25T07:22:35.000Z,11.67
2022-10-25T07:27:34.000Z,10.01
2022-10-25T07:32:35.000Z,8.53
2022-10-25T07:37:34.000Z,7.02
2022-10-25T07:42:34.000Z,6.83
2022-10-25T07:47:34.000Z,7.05
2022-10-25T07:52:35.000Z,6.92
2022-10-25T07:57:35.000Z,6.58
2022-10-25T08:02:36.000Z,6.43
2022-10-25T08:07:34.000Z,6.43
2022-10-25T08:12:34.000Z,5.01
2022-10-25T08:17:35.000Z,4.48
2022-10-25T08:22:34.000Z,5.9
2022-10-25T08:27:34.000Z,6.19
2022-10-25T08:32:35.000Z,6.16
2022-10-25T08:37:34.000Z,5.3
2022-10-25T08:42:34.000Z,6.53
2022-10-25T08:47:34.000Z,7.96
2022-10-25T08:52:34.000Z,7.32
2022-10-25T08:57:34.000Z,5.59
2022-10-25T09:02:35.000Z,7.3
2022-10-25T09:07:35.000Z,5.33
2022-10-25T09:12:35.000Z,6.09
2022-10-25T09:17:34.000Z,6.78
2022-10-25T09:22:34.000Z,6.78
2022-10-25T09:32:35.000Z,6.34
2022-10-25T09:37:35.000Z,5.89
2022-10-25T09:42:34.000Z,6.91
2022-10-25T09:47:35.000Z,7.06
2022-10-25T09:52:35.000Z,7.31
2022-10-25T09:57:34.000Z,9.32
2022-10-25T10:07:34.000Z,7.27
2022-10-25T10:12:35.000Z,7.53
2022-10-25T10:17:35.000Z,7.53
2022-10-25T10:22:35.000Z,9.15
2022-10-25T10:27:35.000Z,7.35
2022-10-25T10:32:34.000Z,8.01
2022-10-25T10:37:34.000Z,8.88
2022-10-25T10:47:35.000Z,13.16
2022-10-25T10:52:35.000Z,14.23
2022-10-25T10:57:34.000Z,13.13
2022-10-25T11:02:36.000Z,13.13
2022-10-25T11:07:34.000Z,14.81
2022-10-25T11:12:35.000Z,16.75
2022-10-25T11:17:35.000Z,19.58
2022-10-25T11:22:42.000Z,16.78
2022-10-25T11:27:35.000Z,13.45
2022-10-25T11:37:34.000Z,18.73
2022-10-25T11:42:35.000Z,18.36
2022-10-25T11:52:34.000Z,15.97
2022-10-25T11:57:34.000Z,14.13
2022-10-25T12:02:35.000Z,12.44
2022-10-25T12:12:35.000Z,11.6
2022-10-25T12:17:34.000Z,14.04
2022-10-25T12:22:35.000Z,13.54
2022-10-25T12:27:34.000Z,13.53
2022-10-25T12:32:35.000Z,13.16
2022-10-25T12:37:35.000Z,12.09
2022-10-25T12:42:35.000Z,14.45
2022-10-25T12:47:35.000Z,18.35
2022-10-25T12:52:35.000Z,18.35
2022-10-25T12:57:34.000Z,15.84
2022-10-25T13:02:35.000Z,15.6
2022-10-25T13:07:35.000Z,17.29
2022-10-25T13:12:35.000Z,12.64
2022-10-25T13:17:35.000Z,14.69
2022-10-25T13:22:35.000Z,17.43
2022-10-25T13:27:35.000Z,18.92
2022-10-25T13:32:35.000Z,29.08
2022-10-25T13:37:35.000Z,36.33
2022-10-25T13:42:35.000Z,41.32
2022-10-25T13:47:35.000Z,36.02
2022-10-25T13:52:34.000Z,31.62
2022-10-25T13:57:35.000Z,31.62
2022-10-25T14:07:34.000Z,41.85
2022-10-25T14:12:34.000Z,34.52
2022-10-25T14:17:35.000Z,32.43
2022-10-25T14:22:39.000Z,38.06
2022-10-25T14:27:35.000Z,42.47
2022-10-25T14:32:34.000Z,42.83
2022-10-25T14:37:34.000Z,46.68
2022-10-25T14:47:35.000Z,43.06
2022-10-25T14:52:35.000Z,48.26
2022-10-25T14:57:35.000Z,48.26
2022-10-25T15:02:34.000Z,50.69
2022-10-25T15:07:35.000Z,50.3
2022-10-25T15:12:35.000Z,50.94
2022-10-25T15:17:34.000Z,53.47
2022-10-25T15:22:35.000Z,49.38
2022-10-25T15:27:34.000Z,47.92
2022-10-25T15:32:34.000Z,48.15
2022-10-25T15:42:35.000Z,39.61
2022-10-25T15:47:35.000Z,44.8
2022-10-25T15:52:35.000Z,54.92
2022-10-25T15:57:35.000Z,56.61
2022-10-25T16:02:34.000Z,56.61
2022-10-25T16:07:35.000Z,58.33
2022-10-25T16:12:34.000Z,57.84
2022-10-25T16:17:35.000Z,55.89
2022-10-25T16:22:34.000Z,54.58
2022-10-25T16:27:35.000Z,54.13
2022-10-25T16:32:35.000Z,52.95
2022-10-25T16:37:35.000Z,56.51
2022-10-25T16:42:35.000Z,53.55
2022-10-25T16:47:34.000Z,55.48
2022-10-25T16:52:35.000Z,58.71
2022-10-25T16:57:35.000Z,58.67
2022-10-25T17:02:34.000Z,62
2022-10-25T17:07:35.000Z,62.31
2022-10-25T17:12:34.000Z,58.03
2022-10-25T17:17:34.000Z,58.03
2022-10-25T17:22:35.000Z,59.51
2022-10-25T17:27:34.000Z,57.7
2022-10-25T17:32:34.000Z,56.29
2022-10-25T17:37:34.000Z,55.13
2022-10-25T17:42:35.000Z,55.38
2022-10-25T17:47:35.000Z,51.27
2022-10-25T17:52:35.000Z,50.33
2022-10-25T17:57:35.000Z,48.56
2022-10-25T18:02:35.000Z,50.43
2022-10-25T18:07:35.000Z,48.21
2022-10-25T18:12:35.000Z,47.16
2022-10-25T18:17:34.000Z,46.44
2022-10-25T18:22:35.000Z,46.44
2022-10-25T18:27:35.000Z,47.43
2022-10-25T18:32:35.000Z,49.63
2022-10-25T18:37:35.000Z,52.06
2022-10-25T18:42:34.000Z,52.15
2022-10-25T18:47:35.000Z,53.73
2022-10-25T18:52:34.000Z,61.02
2022-10-25T18:57:35.000Z,63.26
2022-10-25T19:12:35.000Z,55.92
2022-10-25T19:17:35.000Z,60.62
2022-10-25T19:22:35.000Z,63.52
2022-10-25T19:27:35.000Z,62.87
2022-10-25T19:32:35.000Z,62.89
2022-10-25T19:37:35.000Z,65.89
2022-10-25T19:42:35.000Z,65.76
2022-10-25T19:47:35.000Z,67.68
2022-10-25T19:52:35.000Z,66.94
2022-10-25T19:57:34.000Z,68.03
2022-10-25T20:02:35.000Z,68.71
2022-10-25T20:07:34.000Z,71.45
2022-10-25T20:12:35.000Z,70.31
2022-10-25T20:17:35.000Z,67.58
2022-10-25T20:22:35.000Z,67.58
2022-10-25T20:27:35.000Z,50.59
2022-10-25T20:37:35.000Z,35.23
2022-10-25T20:42:34.000Z,39.94
2022-10-25T20:47:35.000Z,41.99
2022-10-25T20:52:34.000Z,37.96
2022-10-25T20:57:35.000Z,38.81
2022-10-25T21:02:35.000Z,47.58
2022-10-25T21:07:35.000Z,47.58
2022-10-25T21:12:35.000Z,63.36
2022-10-25T21:17:35.000Z,62.23
2022-10-25T21:22:35.000Z,59.17
2022-10-25T21:27:34.000Z,59.06
2022-10-25T21:32:34.000Z,60.03
2022-10-25T21:37:34.000Z,58.16
2022-10-25T21:42:35.000Z,60.28
2022-10-25T21:47:35.000Z,57.14
2022-10-25T21:52:35.000Z,52.48
2022-10-25T21:57:35.000Z,42.47
2022-10-25T22:02:35.000Z,44.36
2022-10-25T22:07:34.000Z,42.03
2022-10-25T22:12:35.000Z,52.38
2022-10-25T22:22:34.000Z,50.18
2022-10-25T22:27:35.000Z,48.19
2022-10-25T22:32:34.000Z,47.85
2022-10-25T22:37:35.000Z,45.84
2022-10-25T22:42:35.000Z,39.25
2022-10-25T22:47:35.000Z,47.32
2022-10-25T22:52:35.000Z,50.69
2022-10-25T22:57:35.000Z,53.85
2022-10-25T23:02:34.000Z,54.77
2022-10-25T23:07:35.000Z,46.03
2022-10-25T23:12:34.000Z,40.43
2022-10-25T23:17:35.000Z,40.43
2022-10-25T23:22:35.000Z,44.25
2022-10-25T23:27:35.000Z,54.85
2022-10-25T23:32:34.000Z,49.65
2022-10-25T23:37:34.000Z,40.35
2022-10-25T23:42:35.000Z,37.82
2022-10-25T23:47:35.000Z,31.92
2022-10-25T23:52:35.000Z,29.64
2022-10-25T23:57:35.000Z,24.66
